sensor_id;sensor_type;location;lat;lon;timestamp;P1;durP1;ratioP1;P2;durP2;ratioP2
39750;SDS011;37579;51.074;17.004;2023-04-30T00:02:12;2.58;;;2.30;;
39750;SDS011;37579;51.074;17.004;2023-04-30T00:04:37;2.55;;;2.30;;
39750;SDS011;37579;51.074;17.004;2023-04-30T00:07:03;2.72;;;2.45;;
39750;SDS011;37579;51.074;17.004;2023-04-30T00:09:29;2.90;;;2.60;;
39750;SDS011;37579;51.074;17.004;2023-04-30T00:11:55;2.60;;;2.40;;
39750;SDS011;37579;51.074;17.004;2023-04-30T00:14:20;3.55;;;2.58;;
39750;SDS011;37579;51.074;17.004;2023-04-30T00:16:46;3.00;;;2.50;;
39750;SDS011;37579;51.074;17.004;2023-04-30T00:19:12;2.60;;;2.20;;
39750;SDS011;37579;51.074;17.004;2023-04-30T00:21:38;3.85;;;2.50;;
39750;SDS011;37579;51.074;17.004;2023-04-30T00:24:04;2.50;;;2.30;;
39750;SDS011;37579;51.074;17.004;2023-04-30T00:26:29;2.72;;;2.40;;
39750;SDS011;37579;51.074;17.004;2023-04-30T00:28:55;2.83;;;2.40;;
39750;SDS011;37579;51.074;17.004;2023-04-30T00:31:21;2.33;;;1.95;;
39750;SDS011;37579;51.074;17.004;2023-04-30T00:33:47;2.80;;;2.38;;
39750;SDS011;37579;51.074;17.004;2023-04-30T00:36:13;3.65;;;2.58;;
39750;SDS011;37579;51.074;17.004;2023-04-30T00:38:38;2.78;;;2.42;;
39750;SDS011;37579;51.074;17.004;2023-04-30T00:41:04;2.92;;;2.63;;
39750;SDS011;37579;51.074;17.004;2023-04-30T00:43:30;5.18;;;2.55;;
39750;SDS011;37579;51.074;17.004;2023-04-30T00:45:58;3.10;;;2.47;;
39750;SDS011;37579;51.074;17.004;2023-04-30T00:48:24;2.83;;;2.53;;
39750;SDS011;37579;51.074;17.004;2023-04-30T00:50:50;3.95;;;2.13;;
39750;SDS011;37579;51.074;17.004;2023-04-30T00:53:16;2.42;;;2.15;;
39750;SDS011;37579;51.074;17.004;2023-04-30T00:55:44;2.90;;;2.38;;
39750;SDS011;37579;51.074;17.004;2023-04-30T00:58:10;2.78;;;2.33;;
39750;SDS011;37579;51.074;17.004;2023-04-30T01:00:36;2.55;;;2.30;;
39750;SDS011;37579;51.074;17.004;2023-04-30T01:03:02;2.65;;;2.40;;
39750;SDS011;37579;51.074;17.004;2023-04-30T01:05:28;2.30;;;2.10;;
39750;SDS011;37579;51.074;17.004;2023-04-30T01:07:54;2.83;;;2.33;;
39750;SDS011;37579;51.074;17.004;2023-04-30T01:10:26;2.47;;;2.13;;
39750;SDS011;37579;51.074;17.004;2023-04-30T01:13:16;2.40;;;2.20;;
39750;SDS011;37579;51.074;17.004;2023-04-30T01:15:59;2.37;;;2.17;;
39750;SDS011;37579;51.074;17.004;2023-04-30T01:18:38;2.65;;;2.45;;
39750;SDS011;37579;51.074;17.004;2023-04-30T01:21:10;2.70;;;2.25;;
39750;SDS011;37579;51.074;17.004;2023-04-30T01:26:10;2.58;;;2.20;;
39750;SDS011;37579;51.074;17.004;2023-04-30T01:28:41;2.22;;;2.03;;
39750;SDS011;37579;51.074;17.004;2023-04-30T01:31:17;2.78;;;2.25;;
39750;SDS011;37579;51.074;17.004;2023-04-30T01:33:43;2.85;;;2.10;;
39750;SDS011;37579;51.074;17.004;2023-04-30T01:41:46;2.97;;;2.00;;
39750;SDS011;37579;51.074;17.004;2023-04-30T01:46:54;3.55;;;2.25;;
39750;SDS011;37579;51.074;17.004;2023-04-30T01:49:50;3.03;;;2.03;;
39750;SDS011;37579;51.074;17.004;2023-04-30T01:52:41;2.50;;;2.30;;
39750;SDS011;37579;51.074;17.004;2023-04-30T01:55:26;2.30;;;2.10;;
39750;SDS011;37579;51.074;17.004;2023-04-30T01:58:10;2.30;;;2.03;;
39750;SDS011;37579;51.074;17.004;2023-04-30T02:00:39;2.08;;;1.90;;
39750;SDS011;37579;51.074;17.004;2023-04-30T02:03:05;2.00;;;1.83;;
39750;SDS011;37579;51.074;17.004;2023-04-30T02:05:31;3.28;;;2.33;;
39750;SDS011;37579;51.074;17.004;2023-04-30T02:07:58;2.50;;;2.20;;
39750;SDS011;37579;51.074;17.004;2023-04-30T02:10:25;2.60;;;2.30;;
39750;SDS011;37579;51.074;17.004;2023-04-30T02:12:51;2.72;;;2.40;;
39750;SDS011;37579;51.074;17.004;2023-04-30T02:15:17;2.35;;;2.15;;
39750;SDS011;37579;51.074;17.004;2023-04-30T02:17:43;2.45;;;1.70;;
39750;SDS011;37579;51.074;17.004;2023-04-30T02:20:10;2.47;;;2.22;;
39750;SDS011;37579;51.074;17.004;2023-04-30T02:22:36;3.38;;;2.40;;
39750;SDS011;37579;51.074;17.004;2023-04-30T02:25:02;2.67;;;2.30;;
39750;SDS011;37579;51.074;17.004;2023-04-30T02:27:29;2.88;;;1.85;;
39750;SDS011;37579;51.074;17.004;2023-04-30T02:29:55;2.45;;;2.20;;
39750;SDS011;37579;51.074;17.004;2023-04-30T02:32:22;2.38;;;2.17;;
39750;SDS011;37579;51.074;17.004;2023-04-30T02:34:48;2.67;;;2.05;;
39750;SDS011;37579;51.074;17.004;2023-04-30T02:37:14;2.78;;;2.25;;
39750;SDS011;37579;51.074;17.004;2023-04-30T02:39:39;2.80;;;1.98;;
39750;SDS011;37579;51.074;17.004;2023-04-30T02:42:06;2.92;;;2.35;;
39750;SDS011;37579;51.074;17.004;2023-04-30T02:44:32;2.22;;;2.03;;
39750;SDS011;37579;51.074;17.004;2023-04-30T02:46:58;2.50;;;2.20;;
39750;SDS011;37579;51.074;17.004;2023-04-30T02:49:24;2.83;;;2.35;;
39750;SDS011;37579;51.074;17.004;2023-04-30T02:51:51;2.53;;;2.20;;
39750;SDS011;37579;51.074;17.004;2023-04-30T02:54:17;2.20;;;2.00;;
39750;SDS011;37579;51.074;17.004;2023-04-30T02:56:43;2.05;;;1.85;;
39750;SDS011;37579;51.074;17.004;2023-04-30T02:59:09;2.38;;;2.15;;
39750;SDS011;37579;51.074;17.004;2023-04-30T03:01:35;2.72;;;2.08;;
39750;SDS011;37579;51.074;17.004;2023-04-30T03:04:01;2.03;;;1.85;;
39750;SDS011;37579;51.074;17.004;2023-04-30T03:06:32;2.30;;;2.10;;
39750;SDS011;37579;51.074;17.004;2023-04-30T03:08:58;2.10;;;1.90;;
39750;SDS011;37579;51.074;17.004;2023-04-30T03:11:25;2.25;;;1.98;;
39750;SDS011;37579;51.074;17.004;2023-04-30T03:13:51;2.30;;;2.10;;
39750;SDS011;37579;51.074;17.004;2023-04-30T03:16:18;2.28;;;2.00;;
39750;SDS011;37579;51.074;17.004;2023-04-30T03:18:45;2.45;;;2.10;;
39750;SDS011;37579;51.074;17.004;2023-04-30T03:21:11;2.22;;;1.98;;
39750;SDS011;37579;51.074;17.004;2023-04-30T03:23:37;2.05;;;1.85;;
39750;SDS011;37579;51.074;17.004;2023-04-30T03:26:03;2.05;;;1.85;;
39750;SDS011;37579;51.074;17.004;2023-04-30T03:28:29;2.47;;;1.98;;
39750;SDS011;37579;51.074;17.004;2023-04-30T03:30:54;2.97;;;1.95;;
39750;SDS011;37579;51.074;17.004;2023-04-30T03:33:20;2.63;;;1.88;;
39750;SDS011;37579;51.074;17.004;2023-04-30T03:35:46;2.28;;;2.08;;
39750;SDS011;37579;51.074;17.004;2023-04-30T03:38:13;2.83;;;2.15;;
39750;SDS011;37579;51.074;17.004;2023-04-30T03:40:38;2.40;;;2.20;;
39750;SDS011;37579;51.074;17.004;2023-04-30T03:43:04;2.30;;;2.10;;
39750;SDS011;37579;51.074;17.004;2023-04-30T03:45:30;1.80;;;1.60;;
39750;SDS011;37579;51.074;17.004;2023-04-30T03:47:56;4.22;;;1.98;;
39750;SDS011;37579;51.074;17.004;2023-04-30T03:50:22;2.15;;;1.80;;
39750;SDS011;37579;51.074;17.004;2023-04-30T03:52:48;2.10;;;1.90;;
39750;SDS011;37579;51.074;17.004;2023-04-30T03:55:14;2.08;;;1.85;;
39750;SDS011;37579;51.074;17.004;2023-04-30T03:57:41;2.60;;;1.90;;
39750;SDS011;37579;51.074;17.004;2023-04-30T04:00:07;2.22;;;1.95;;
39750;SDS011;37579;51.074;17.004;2023-04-30T04:02:38;2.33;;;1.85;;
39750;SDS011;37579;51.074;17.004;2023-04-30T04:05:05;2.17;;;1.90;;
39750;SDS011;37579;51.074;17.004;2023-04-30T04:07:32;1.98;;;1.77;;
39750;SDS011;37579;51.074;17.004;2023-04-30T04:09:58;1.95;;;1.75;;
39750;SDS011;37579;51.074;17.004;2023-04-30T04:12:24;2.03;;;1.83;;
39750;SDS011;37579;51.074;17.004;2023-04-30T04:14:51;1.85;;;1.65;;
39750;SDS011;37579;51.074;17.004;2023-04-30T04:17:17;2.53;;;2.10;;
39750;SDS011;37579;51.074;17.004;2023-04-30T04:19:43;2.13;;;1.80;;
39750;SDS011;37579;51.074;17.004;2023-04-30T04:22:09;2.72;;;1.98;;
39750;SDS011;37579;51.074;17.004;2023-04-30T04:24:36;1.85;;;1.60;;
39750;SDS011;37579;51.074;17.004;2023-04-30T04:27:02;2.05;;;1.85;;
39750;SDS011;37579;51.074;17.004;2023-04-30T04:29:30;2.30;;;1.90;;
39750;SDS011;37579;51.074;17.004;2023-04-30T04:31:56;2.67;;;1.80;;
39750;SDS011;37579;51.074;17.004;2023-04-30T04:34:25;2.20;;;1.90;;
39750;SDS011;37579;51.074;17.004;2023-04-30T04:36:51;2.25;;;2.05;;
39750;SDS011;37579;51.074;17.004;2023-04-30T04:39:17;1.98;;;1.77;;
39750;SDS011;37579;51.074;17.004;2023-04-30T04:41:44;2.35;;;2.00;;
39750;SDS011;37579;51.074;17.004;2023-04-30T04:44:10;2.03;;;1.83;;
39750;SDS011;37579;51.074;17.004;2023-04-30T04:46:36;2.30;;;2.10;;
39750;SDS011;37579;51.074;17.004;2023-04-30T04:49:06;2.20;;;1.90;;
39750;SDS011;37579;51.074;17.004;2023-04-30T04:51:33;2.05;;;1.83;;
39750;SDS011;37579;51.074;17.004;2023-04-30T04:53:59;2.10;;;1.90;;
39750;SDS011;37579;51.074;17.004;2023-04-30T04:56:25;1.90;;;1.70;;
39750;SDS011;37579;51.074;17.004;2023-04-30T04:58:51;2.70;;;1.83;;
39750;SDS011;37579;51.074;17.004;2023-04-30T05:01:17;2.63;;;2.00;;
39750;SDS011;37579;51.074;17.004;2023-04-30T05:03:45;2.47;;;1.92;;
39750;SDS011;37579;51.074;17.004;2023-04-30T05:06:11;2.10;;;1.90;;
39750;SDS011;37579;51.074;17.004;2023-04-30T05:08:37;1.88;;;1.70;;
39750;SDS011;37579;51.074;17.004;2023-04-30T05:11:03;2.00;;;1.75;;
39750;SDS011;37579;51.074;17.004;2023-04-30T05:13:28;3.50;;;2.00;;
39750;SDS011;37579;51.074;17.004;2023-04-30T05:15:54;2.10;;;1.90;;
39750;SDS011;37579;51.074;17.004;2023-04-30T05:18:20;2.03;;;1.60;;
39750;SDS011;37579;51.074;17.004;2023-04-30T05:20:46;1.70;;;1.60;;
39750;SDS011;37579;51.074;17.004;2023-04-30T05:23:11;1.80;;;1.70;;
39750;SDS011;37579;51.074;17.004;2023-04-30T05:25:37;2.15;;;1.92;;
39750;SDS011;37579;51.074;17.004;2023-04-30T05:28:03;1.60;;;1.50;;
39750;SDS011;37579;51.074;17.004;2023-04-30T05:30:31;2.55;;;1.70;;
39750;SDS011;37579;51.074;17.004;2023-04-30T05:32:57;1.70;;;1.60;;
39750;SDS011;37579;51.074;17.004;2023-04-30T05:35:22;2.00;;;1.70;;
39750;SDS011;37579;51.074;17.004;2023-04-30T05:37:49;2.60;;;1.73;;
39750;SDS011;37579;51.074;17.004;2023-04-30T05:40:15;4.28;;;2.00;;
39750;SDS011;37579;51.074;17.004;2023-04-30T05:42:41;1.98;;;1.73;;
39750;SDS011;37579;51.074;17.004;2023-04-30T05:45:11;1.65;;;1.50;;
39750;SDS011;37579;51.074;17.004;2023-04-30T05:47:41;1.60;;;1.45;;
39750;SDS011;37579;51.074;17.004;2023-04-30T05:50:08;2.03;;;1.73;;
39750;SDS011;37579;51.074;17.004;2023-04-30T05:52:34;1.88;;;1.65;;
39750;SDS011;37579;51.074;17.004;2023-04-30T05:55:00;2.15;;;1.77;;
39750;SDS011;37579;51.074;17.004;2023-04-30T05:57:26;1.98;;;1.75;;
39750;SDS011;37579;51.074;17.004;2023-04-30T05:59:51;2.72;;;1.80;;
39750;SDS011;37579;51.074;17.004;2023-04-30T06:02:18;1.83;;;1.65;;
39750;SDS011;37579;51.074;17.004;2023-04-30T06:04:44;1.75;;;1.50;;
39750;SDS011;37579;51.074;17.004;2023-04-30T06:07:11;1.98;;;1.48;;
39750;SDS011;37579;51.074;17.004;2023-04-30T06:09:37;2.90;;;1.80;;
39750;SDS011;37579;51.074;17.004;2023-04-30T06:12:03;2.63;;;1.52;;
39750;SDS011;37579;51.074;17.004;2023-04-30T06:14:29;1.92;;;1.55;;
39750;SDS011;37579;51.074;17.004;2023-04-30T06:16:55;2.78;;;1.80;;
39750;SDS011;37579;51.074;17.004;2023-04-30T06:19:21;2.33;;;1.60;;
39750;SDS011;37579;51.074;17.004;2023-04-30T06:21:47;2.20;;;1.48;;
39750;SDS011;37579;51.074;17.004;2023-04-30T06:24:12;2.28;;;2.00;;
39750;SDS011;37579;51.074;17.004;2023-04-30T06:26:38;3.30;;;2.42;;
39750;SDS011;37579;51.074;17.004;2023-04-30T06:29:04;3.17;;;2.42;;
39750;SDS011;37579;51.074;17.004;2023-04-30T06:31:30;3.35;;;2.28;;
39750;SDS011;37579;51.074;17.004;2023-04-30T06:33:56;2.70;;;2.15;;
39750;SDS011;37579;51.074;17.004;2023-04-30T06:36:21;3.65;;;2.47;;
39750;SDS011;37579;51.074;17.004;2023-04-30T06:38:47;3.45;;;2.35;;
39750;SDS011;37579;51.074;17.004;2023-04-30T06:41:13;4.15;;;2.45;;
39750;SDS011;37579;51.074;17.004;2023-04-30T06:43:40;4.35;;;2.80;;
39750;SDS011;37579;51.074;17.004;2023-04-30T06:46:07;2.85;;;2.50;;
39750;SDS011;37579;51.074;17.004;2023-04-30T06:48:33;3.25;;;2.35;;
39750;SDS011;37579;51.074;17.004;2023-04-30T06:50:59;4.55;;;2.40;;
39750;SDS011;37579;51.074;17.004;2023-04-30T06:53:24;3.03;;;2.00;;
39750;SDS011;37579;51.074;17.004;2023-04-30T06:55:50;2.95;;;2.15;;
39750;SDS011;37579;51.074;17.004;2023-04-30T06:58:17;3.30;;;2.00;;
39750;SDS011;37579;51.074;17.004;2023-04-30T07:00:44;4.38;;;1.98;;
39750;SDS011;37579;51.074;17.004;2023-04-30T07:03:09;5.55;;;2.10;;
39750;SDS011;37579;51.074;17.004;2023-04-30T07:05:35;3.03;;;2.00;;
39750;SDS011;37579;51.074;17.004;2023-04-30T07:08:01;3.08;;;1.85;;
39750;SDS011;37579;51.074;17.004;2023-04-30T07:10:28;4.43;;;1.88;;
39750;SDS011;37579;51.074;17.004;2023-04-30T07:12:55;3.42;;;1.88;;
39750;SDS011;37579;51.074;17.004;2023-04-30T07:15:21;3.33;;;1.92;;
39750;SDS011;37579;51.074;17.004;2023-04-30T07:17:47;5.82;;;1.90;;
39750;SDS011;37579;51.074;17.004;2023-04-30T07:20:13;5.85;;;2.22;;
39750;SDS011;37579;51.074;17.004;2023-04-30T07:22:42;4.10;;;1.90;;
39750;SDS011;37579;51.074;17.004;2023-04-30T07:25:10;4.63;;;1.80;;
39750;SDS011;37579;51.074;17.004;2023-04-30T07:27:37;5.03;;;1.95;;
39750;SDS011;37579;51.074;17.004;2023-04-30T07:30:04;4.78;;;1.98;;
39750;SDS011;37579;51.074;17.004;2023-04-30T07:32:36;3.15;;;1.58;;
39750;SDS011;37579;51.074;17.004;2023-04-30T07:35:02;3.35;;;1.80;;
39750;SDS011;37579;51.074;17.004;2023-04-30T07:37:28;5.40;;;2.10;;
39750;SDS011;37579;51.074;17.004;2023-04-30T07:39:54;4.07;;;1.90;;
39750;SDS011;37579;51.074;17.004;2023-04-30T07:42:20;4.55;;;1.67;;
39750;SDS011;37579;51.074;17.004;2023-04-30T07:44:46;3.13;;;1.67;;
39750;SDS011;37579;51.074;17.004;2023-04-30T07:47:13;4.32;;;1.90;;
39750;SDS011;37579;51.074;17.004;2023-04-30T07:49:38;2.30;;;1.75;;
39750;SDS011;37579;51.074;17.004;2023-04-30T07:52:04;6.53;;;2.55;;
39750;SDS011;37579;51.074;17.004;2023-04-30T07:54:32;3.60;;;2.20;;
39750;SDS011;37579;51.074;17.004;2023-04-30T07:57:00;3.85;;;2.20;;
39750;SDS011;37579;51.074;17.004;2023-04-30T07:59:27;4.78;;;2.42;;
39750;SDS011;37579;51.074;17.004;2023-04-30T08:01:53;7.57;;;2.67;;
39750;SDS011;37579;51.074;17.004;2023-04-30T08:04:19;4.22;;;2.28;;
39750;SDS011;37579;51.074;17.004;2023-04-30T08:06:45;5.18;;;2.15;;
39750;SDS011;37579;51.074;17.004;2023-04-30T08:09:10;2.95;;;2.03;;
39750;SDS011;37579;51.074;17.004;2023-04-30T08:11:36;3.30;;;1.75;;
39750;SDS011;37579;51.074;17.004;2023-04-30T08:14:02;3.13;;;2.05;;
39750;SDS011;37579;51.074;17.004;2023-04-30T08:16:28;4.28;;;2.13;;
39750;SDS011;37579;51.074;17.004;2023-04-30T08:18:54;3.97;;;2.03;;
39750;SDS011;37579;51.074;17.004;2023-04-30T08:21:20;7.57;;;2.35;;
39750;SDS011;37579;51.074;17.004;2023-04-30T08:23:46;3.47;;;1.88;;
39750;SDS011;37579;51.074;17.004;2023-04-30T08:26:12;3.63;;;2.03;;
39750;SDS011;37579;51.074;17.004;2023-04-30T08:28:37;6.00;;;2.08;;
39750;SDS011;37579;51.074;17.004;2023-04-30T08:31:03;5.28;;;2.72;;
39750;SDS011;37579;51.074;17.004;2023-04-30T08:33:29;13.68;;;5.22;;
39750;SDS011;37579;51.074;17.004;2023-04-30T08:35:56;20.58;;;8.18;;
39750;SDS011;37579;51.074;17.004;2023-04-30T08:38:21;14.57;;;8.32;;
39750;SDS011;37579;51.074;17.004;2023-04-30T08:40:48;16.38;;;7.85;;
39750;SDS011;37579;51.074;17.004;2023-04-30T08:43:20;13.82;;;7.32;;
39750;SDS011;37579;51.074;17.004;2023-04-30T08:45:47;15.25;;;7.05;;
39750;SDS011;37579;51.074;17.004;2023-04-30T08:48:15;13.05;;;6.72;;
39750;SDS011;37579;51.074;17.004;2023-04-30T08:50:43;12.68;;;7.25;;
39750;SDS011;37579;51.074;17.004;2023-04-30T08:53:09;11.50;;;6.45;;
39750;SDS011;37579;51.074;17.004;2023-04-30T08:55:37;14.70;;;6.68;;
39750;SDS011;37579;51.074;17.004;2023-04-30T08:58:05;9.43;;;5.93;;
39750;SDS011;37579;51.074;17.004;2023-04-30T09:00:32;10.82;;;5.80;;
39750;SDS011;37579;51.074;17.004;2023-04-30T09:03:00;10.35;;;5.97;;
39750;SDS011;37579;51.074;17.004;2023-04-30T09:05:25;9.30;;;6.05;;
39750;SDS011;37579;51.074;17.004;2023-04-30T09:07:51;11.15;;;5.88;;
39750;SDS011;37579;51.074;17.004;2023-04-30T09:10:18;10.52;;;5.35;;
39750;SDS011;37579;51.074;17.004;2023-04-30T09:13:07;12.68;;;6.30;;
39750;SDS011;37579;51.074;17.004;2023-04-30T09:15:33;12.55;;;5.45;;
39750;SDS011;37579;51.074;17.004;2023-04-30T09:20:57;11.98;;;5.30;;
39750;SDS011;37579;51.074;17.004;2023-04-30T09:23:26;13.15;;;4.82;;
39750;SDS011;37579;51.074;17.004;2023-04-30T09:25:52;12.63;;;4.93;;
39750;SDS011;37579;51.074;17.004;2023-04-30T09:28:18;8.55;;;4.70;;
39750;SDS011;37579;51.074;17.004;2023-04-30T09:30:49;12.05;;;4.70;;
39750;SDS011;37579;51.074;17.004;2023-04-30T09:33:15;8.05;;;3.95;;
39750;SDS011;37579;51.074;17.004;2023-04-30T09:35:41;10.27;;;4.50;;
39750;SDS011;37579;51.074;17.004;2023-04-30T09:38:07;8.88;;;3.95;;
39750;SDS011;37579;51.074;17.004;2023-04-30T09:40:49;9.95;;;4.00;;
39750;SDS011;37579;51.074;17.004;2023-04-30T09:43:14;7.50;;;4.18;;
39750;SDS011;37579;51.074;17.004;2023-04-30T09:45:41;11.73;;;4.05;;
39750;SDS011;37579;51.074;17.004;2023-04-30T09:48:08;10.80;;;3.97;;
39750;SDS011;37579;51.074;17.004;2023-04-30T09:50:39;8.60;;;4.47;;
39750;SDS011;37579;51.074;17.004;2023-04-30T09:53:08;11.63;;;4.32;;
39750;SDS011;37579;51.074;17.004;2023-04-30T09:55:37;7.80;;;4.20;;
39750;SDS011;37579;51.074;17.004;2023-04-30T09:58:11;9.88;;;3.70;;
39750;SDS011;37579;51.074;17.004;2023-04-30T10:00:38;6.68;;;2.63;;
39750;SDS011;37579;51.074;17.004;2023-04-30T10:03:08;6.80;;;2.90;;
39750;SDS011;37579;51.074;17.004;2023-04-30T10:05:36;13.98;;;3.05;;
39750;SDS011;37579;51.074;17.004;2023-04-30T10:08:06;7.47;;;2.78;;
39750;SDS011;37579;51.074;17.004;2023-04-30T10:10:37;4.82;;;2.08;;
39750;SDS011;37579;51.074;17.004;2023-04-30T10:13:08;6.35;;;2.30;;
39750;SDS011;37579;51.074;17.004;2023-04-30T10:15:39;11.70;;;3.05;;
39750;SDS011;37579;51.074;17.004;2023-04-30T10:18:13;5.55;;;2.00;;
39750;SDS011;37579;51.074;17.004;2023-04-30T10:20:44;7.25;;;1.80;;
39750;SDS011;37579;51.074;17.004;2023-04-30T10:23:12;5.60;;;2.35;;
39750;SDS011;37579;51.074;17.004;2023-04-30T10:25:38;10.02;;;2.28;;
39750;SDS011;37579;51.074;17.004;2023-04-30T10:28:05;4.13;;;1.70;;
39750;SDS011;37579;51.074;17.004;2023-04-30T10:30:33;4.32;;;1.52;;
39750;SDS011;37579;51.074;17.004;2023-04-30T10:35:29;3.53;;;1.58;;
39750;SDS011;37579;51.074;17.004;2023-04-30T10:38:06;3.60;;;1.90;;
39750;SDS011;37579;51.074;17.004;2023-04-30T10:40:44;6.28;;;1.80;;
39750;SDS011;37579;51.074;17.004;2023-04-30T10:43:15;3.97;;;1.58;;
39750;SDS011;37579;51.074;17.004;2023-04-30T10:45:43;3.65;;;1.55;;
39750;SDS011;37579;51.074;17.004;2023-04-30T10:48:11;2.85;;;1.30;;
39750;SDS011;37579;51.074;17.004;2023-04-30T10:50:40;4.05;;;1.80;;
39750;SDS011;37579;51.074;17.004;2023-04-30T10:53:08;4.50;;;1.30;;
39750;SDS011;37579;51.074;17.004;2023-04-30T10:55:46;4.68;;;1.45;;
39750;SDS011;37579;51.074;17.004;2023-04-30T10:58:49;6.32;;;1.60;;
39750;SDS011;37579;51.074;17.004;2023-04-30T11:01:13;5.35;;;1.83;;
39750;SDS011;37579;51.074;17.004;2023-04-30T11:03:42;4.18;;;1.60;;
39750;SDS011;37579;51.074;17.004;2023-04-30T11:06:47;4.53;;;1.80;;
39750;SDS011;37579;51.074;17.004;2023-04-30T11:09:43;5.82;;;1.33;;
39750;SDS011;37579;51.074;17.004;2023-04-30T11:12:18;5.75;;;1.58;;
39750;SDS011;37579;51.074;17.004;2023-04-30T11:14:58;7.82;;;1.95;;
39750;SDS011;37579;51.074;17.004;2023-04-30T11:17:45;4.03;;;1.60;;
39750;SDS011;37579;51.074;17.004;2023-04-30T11:20:19;3.83;;;1.38;;
39750;SDS011;37579;51.074;17.004;2023-04-30T11:22:47;4.03;;;1.38;;
39750;SDS011;37579;51.074;17.004;2023-04-30T11:25:17;4.22;;;1.30;;
39750;SDS011;37579;51.074;17.004;2023-04-30T11:27:44;4.47;;;1.75;;
39750;SDS011;37579;51.074;17.004;2023-04-30T11:30:11;5.25;;;1.60;;
39750;SDS011;37579;51.074;17.004;2023-04-30T11:32:39;3.88;;;1.33;;
39750;SDS011;37579;51.074;17.004;2023-04-30T11:35:06;5.15;;;1.30;;
39750;SDS011;37579;51.074;17.004;2023-04-30T11:37:33;5.88;;;1.50;;
39750;SDS011;37579;51.074;17.004;2023-04-30T11:40:01;5.72;;;1.35;;
39750;SDS011;37579;51.074;17.004;2023-04-30T11:42:32;4.57;;;1.77;;
39750;SDS011;37579;51.074;17.004;2023-04-30T11:45:12;3.58;;;1.20;;
39750;SDS011;37579;51.074;17.004;2023-04-30T11:50:12;3.88;;;1.50;;
39750;SDS011;37579;51.074;17.004;2023-04-30T11:52:39;5.85;;;1.30;;
39750;SDS011;37579;51.074;17.004;2023-04-30T11:55:14;3.42;;;1.20;;
39750;SDS011;37579;51.074;17.004;2023-04-30T11:57:41;3.78;;;1.30;;
39750;SDS011;37579;51.074;17.004;2023-04-30T12:00:09;2.38;;;1.13;;
39750;SDS011;37579;51.074;17.004;2023-04-30T12:02:37;4.03;;;1.10;;
39750;SDS011;37579;51.074;17.004;2023-04-30T12:05:04;4.32;;;1.10;;
39750;SDS011;37579;51.074;17.004;2023-04-30T12:07:36;3.10;;;1.25;;
39750;SDS011;37579;51.074;17.004;2023-04-30T12:10:02;2.00;;;1.08;;
39750;SDS011;37579;51.074;17.004;2023-04-30T12:12:28;3.70;;;1.55;;
39750;SDS011;37579;51.074;17.004;2023-04-30T12:14:54;2.83;;;1.15;;
39750;SDS011;37579;51.074;17.004;2023-04-30T12:17:33;1.88;;;1.20;;
39750;SDS011;37579;51.074;17.004;2023-04-30T12:19:59;3.03;;;1.20;;
39750;SDS011;37579;51.074;17.004;2023-04-30T12:22:25;3.90;;;1.15;;
39750;SDS011;37579;51.074;17.004;2023-04-30T12:24:51;2.78;;;1.05;;
39750;SDS011;37579;51.074;17.004;2023-04-30T12:27:18;3.75;;;1.35;;
39750;SDS011;37579;51.074;17.004;2023-04-30T12:29:43;2.67;;;1.05;;
39750;SDS011;37579;51.074;17.004;2023-04-30T12:32:11;2.67;;;0.85;;
39750;SDS011;37579;51.074;17.004;2023-04-30T12:34:40;3.40;;;1.40;;
39750;SDS011;37579;51.074;17.004;2023-04-30T12:37:06;2.25;;;1.10;;
39750;SDS011;37579;51.074;17.004;2023-04-30T12:39:32;3.63;;;1.20;;
39750;SDS011;37579;51.074;17.004;2023-04-30T12:41:59;4.00;;;1.35;;
39750;SDS011;37579;51.074;17.004;2023-04-30T12:44:26;2.33;;;1.10;;
39750;SDS011;37579;51.074;17.004;2023-04-30T12:46:54;2.45;;;1.27;;
39750;SDS011;37579;51.074;17.004;2023-04-30T12:51:49;3.83;;;1.23;;
39750;SDS011;37579;51.074;17.004;2023-04-30T12:54:23;1.98;;;0.95;;
39750;SDS011;37579;51.074;17.004;2023-04-30T12:57:00;3.03;;;1.30;;
39750;SDS011;37579;51.074;17.004;2023-04-30T12:59:28;2.13;;;0.80;;
39750;SDS011;37579;51.074;17.004;2023-04-30T13:02:04;1.90;;;1.02;;
39750;SDS011;37579;51.074;17.004;2023-04-30T13:04:34;1.65;;;0.90;;
39750;SDS011;37579;51.074;17.004;2023-04-30T13:07:00;2.08;;;1.00;;
39750;SDS011;37579;51.074;17.004;2023-04-30T13:09:27;2.75;;;1.20;;
39750;SDS011;37579;51.074;17.004;2023-04-30T13:11:53;2.40;;;1.05;;
39750;SDS011;37579;51.074;17.004;2023-04-30T13:14:19;2.88;;;1.15;;
39750;SDS011;37579;51.074;17.004;2023-04-30T13:16:45;3.80;;;1.10;;
39750;SDS011;37579;51.074;17.004;2023-04-30T13:19:11;2.97;;;1.08;;
39750;SDS011;37579;51.074;17.004;2023-04-30T13:21:37;2.22;;;0.73;;
39750;SDS011;37579;51.074;17.004;2023-04-30T13:24:03;1.77;;;1.00;;
39750;SDS011;37579;51.074;17.004;2023-04-30T13:26:29;1.92;;;0.90;;
39750;SDS011;37579;51.074;17.004;2023-04-30T13:28:55;4.47;;;1.25;;
39750;SDS011;37579;51.074;17.004;2023-04-30T13:31:21;2.00;;;0.80;;
39750;SDS011;37579;51.074;17.004;2023-04-30T13:33:47;2.03;;;1.00;;
39750;SDS011;37579;51.074;17.004;2023-04-30T13:36:13;3.80;;;1.10;;
39750;SDS011;37579;51.074;17.004;2023-04-30T13:38:39;2.10;;;0.90;;
39750;SDS011;37579;51.074;17.004;2023-04-30T13:41:05;2.90;;;1.13;;
39750;SDS011;37579;51.074;17.004;2023-04-30T13:43:31;1.92;;;1.20;;
39750;SDS011;37579;51.074;17.004;2023-04-30T13:45:57;1.98;;;0.98;;
39750;SDS011;37579;51.074;17.004;2023-04-30T13:48:23;1.08;;;0.80;;
39750;SDS011;37579;51.074;17.004;2023-04-30T13:50:50;2.13;;;0.98;;
39750;SDS011;37579;51.074;17.004;2023-04-30T13:53:16;2.15;;;0.98;;
39750;SDS011;37579;51.074;17.004;2023-04-30T13:55:42;2.53;;;1.15;;
39750;SDS011;37579;51.074;17.004;2023-04-30T13:58:08;1.70;;;0.90;;
39750;SDS011;37579;51.074;17.004;2023-04-30T14:00:34;1.33;;;0.70;;
39750;SDS011;37579;51.074;17.004;2023-04-30T14:02:59;1.60;;;0.75;;
39750;SDS011;37579;51.074;17.004;2023-04-30T14:05:25;2.05;;;0.80;;
39750;SDS011;37579;51.074;17.004;2023-04-30T14:07:51;1.88;;;0.75;;
39750;SDS011;37579;51.074;17.004;2023-04-30T14:10:17;3.05;;;0.77;;
39750;SDS011;37579;51.074;17.004;2023-04-30T14:12:43;2.00;;;0.82;;
39750;SDS011;37579;51.074;17.004;2023-04-30T14:15:09;1.27;;;0.80;;
39750;SDS011;37579;51.074;17.004;2023-04-30T14:17:35;2.58;;;0.80;;
39750;SDS011;37579;51.074;17.004;2023-04-30T14:20:01;3.72;;;1.10;;
39750;SDS011;37579;51.074;17.004;2023-04-30T14:22:26;1.55;;;0.85;;
39750;SDS011;37579;51.074;17.004;2023-04-30T14:24:52;1.70;;;0.98;;
39750;SDS011;37579;51.074;17.004;2023-04-30T14:27:18;1.92;;;0.90;;
39750;SDS011;37579;51.074;17.004;2023-04-30T14:29:45;1.92;;;0.93;;
39750;SDS011;37579;51.074;17.004;2023-04-30T14:32:11;2.92;;;0.90;;
39750;SDS011;37579;51.074;17.004;2023-04-30T14:34:38;2.20;;;0.80;;
39750;SDS011;37579;51.074;17.004;2023-04-30T14:37:04;4.03;;;1.10;;
39750;SDS011;37579;51.074;17.004;2023-04-30T14:39:30;2.40;;;1.08;;
39750;SDS011;37579;51.074;17.004;2023-04-30T14:41:56;3.03;;;1.20;;
39750;SDS011;37579;51.074;17.004;2023-04-30T14:44:21;2.85;;;1.00;;
39750;SDS011;37579;51.074;17.004;2023-04-30T14:46:49;3.15;;;1.17;;
39750;SDS011;37579;51.074;17.004;2023-04-30T14:49:15;1.52;;;0.70;;
39750;SDS011;37579;51.074;17.004;2023-04-30T14:51:41;1.90;;;0.80;;
39750;SDS011;37579;51.074;17.004;2023-04-30T14:54:06;2.67;;;1.00;;
39750;SDS011;37579;51.074;17.004;2023-04-30T14:56:32;1.40;;;0.70;;
39750;SDS011;37579;51.074;17.004;2023-04-30T14:58:58;1.70;;;1.00;;